All City Stadium (Denver), Colorado
Current Conditions -  °F | °C
As of 6:53 AM on Sunday 21 Dec 2014 (Local Time) from KAPA Reporting Station
Broken Clouds Broken Clouds  
Wind Chill: 26°   Ceiling: 10000
Heat Index: 33°   Visibility: 10mi
Dew Point: 19°   Wind: 8mph
Humidity: 56%   Direction: 160°SSE
Pressure: 29.75"   Gusts: NA
Location:  39.69109°N, 104.9663°W
Report Text: KAPA 211353Z 16007KT 10SM BKN100 BKN200 01/M07 A2975 RMK AO2 SLP088 T00061072
Loading
Personal Weather Stations






























Interactive Weather Map New forecast layout! Learn more

10-Day Weather Forecast

Advertisements
Track Severe Weather on mobile